< Typhoon 201927 2019 Season Typhoon 201929 >
Typhoon 201928 (KAMMURI)
General InformationDetailed Track InformationTrack Information on Google MapsForecast History on Google MapsAccess Analytics MapList of All Images || NewsDisaster Info.WeblogTrackbackTyphoon FrontTwiphoonTyphoon Now!Typhoon ImaginationJMA Disaster Info. XMLResourceGoogle EarthGE AnimationAtom FeedGeoJSON
Detalied Best Track Wind (Time Zone = UTC)
Year Month Day Hour Lat. Long. Wind (kt) Gust (kt) Direc. of Major Storm Axis Radius of Major Storm Axis (nm) Radius of Minor Storm Axis (nm) Direc. of Major Gale Axis Radius of Major Gale Axis (nm) Radius of Minor Gale Axis (nm) Image
2019 11 25 12 9.2 153.5 30 45 - - - - - - Image
2019 11 25 15 9.5 152.5 30 45 - - - - - - Image
2019 11 25 18 9.7 151.4 30 45 - - - - - - Image
2019 11 25 21 10.0 150.5 30 45 - - - - - - Image
2019 11 26 00 10.3 149.9 35 50 - - - N 300 180 Image
2019 11 26 06 10.9 147.4 35 50 - - - N 300 180 Image
2019 11 26 09 11.4 146.3 35 50 - - - N 300 180 Image
2019 11 26 12 11.6 145.5 35 50 - - - N 300 180 Image
2019 11 26 15 11.6 144.6 40 60 - - - N 300 180 Image
2019 11 26 18 11.8 143.8 45 65 - - - N 300 180 Image
2019 11 26 21 11.6 143.1 45 65 - - - N 300 180 Image
2019 11 27 00 11.5 141.9 45 65 - - - N 300 180 Image
2019 11 27 03 11.4 141.5 45 65 - - - N 300 180 Image
2019 11 27 06 11.5 140.7 50 70 - - - N 300 180 Image
2019 11 27 09 11.4 140.2 50 70 - - - N 300 180 Image
2019 11 27 12 11.6 139.9 55 80 symmetric 50 50 N 300 180 Image
2019 11 27 15 11.7 139.5 55 80 symmetric 40 40 N 300 150 Image
2019 11 27 18 11.9 139.4 60 85 symmetric 40 40 N 300 150 Image
2019 11 27 21 12.1 139.2 60 85 symmetric 40 40 N 300 150 Image
2019 11 28 00 12.1 139.0 65 95 symmetric 40 40 N 300 150 Image
2019 11 28 03 12.1 138.6 65 95 symmetric 40 40 N 300 150 Image
2019 11 28 06 12.7 138.5 70 100 symmetric 50 50 N 300 150 Image
2019 11 28 09 13.5 138.4 70 100 symmetric 50 50 N 300 150 Image
2019 11 28 12 13.5 138.1 70 100 symmetric 50 50 N 300 150 Image
2019 11 28 15 13.5 137.7 70 100 symmetric 50 50 NW 375 180 Image
2019 11 28 18 13.6 136.7 70 100 symmetric 50 50 symmetric 270 270 Image
2019 11 28 21 13.6 136.7 70 100 symmetric 50 50 symmetric 270 270 Image
2019 11 29 00 14.1 138.0 75 105 symmetric 60 60 symmetric 270 270 Image
2019 11 29 03 14.0 137.9 80 115 symmetric 60 60 NW 270 210 Image
2019 11 29 06 14.0 137.8 80 115 symmetric 60 60 NW 270 210 Image
2019 11 29 09 14.0 137.5 80 115 symmetric 60 60 NW 270 210 Image
2019 11 29 12 13.8 137.0 80 115 symmetric 70 70 NW 270 210 Image
2019 11 29 15 13.8 136.8 80 115 symmetric 70 70 NW 270 210 Image
2019 11 29 18 13.8 136.5 80 115 symmetric 70 70 NW 270 180 Image
2019 11 29 21 13.8 136.3 80 115 symmetric 70 70 NW 270 180 Image
2019 11 30 00 13.8 135.9 80 115 symmetric 70 70 NW 270 180 Image
2019 11 30 03 13.8 135.6 80 115 symmetric 70 70 NW 270 150 Image
2019 11 30 06 13.8 135.4 80 115 symmetric 70 70 NW 270 150 Image
2019 11 30 09 13.5 134.6 80 115 symmetric 70 70 NW 270 150 Image
2019 11 30 12 13.1 133.9 80 115 symmetric 70 70 NW 270 150 Image
2019 11 30 15 13.1 133.3 80 115 symmetric 70 70 NW 270 150 Image
2019 11 30 18 13.1 132.6 80 115 symmetric 70 70 NW 270 150 Image
2019 11 30 21 13.1 132.0 80 115 symmetric 70 70 NW 270 150 Image
2019 12 1 00 13.0 130.7 80 115 symmetric 70 70 NW 270 150 Image
2019 12 1 03 12.9 130.3 80 115 symmetric 60 60 NW 270 150 Image
2019 12 1 06 13.2 129.9 80 115 symmetric 60 60 NW 270 150 Image
2019 12 1 09 13.2 129.5 80 115 symmetric 60 60 NW 270 150 Image
2019 12 1 12 13.1 129.2 75 105 symmetric 60 60 NW 270 150 Image
2019 12 1 15 13.1 128.6 75 105 symmetric 60 60 NW 270 150 Image
2019 12 1 18 13.2 127.6 70 100 symmetric 50 50 NW 270 150 Image
2019 12 1 21 13.1 127.1 70 100 symmetric 50 50 NW 270 150 Image
2019 12 2 00 12.9 126.6 80 115 symmetric 70 70 NW 270 150 Image
2019 12 2 03 13.0 126.2 80 115 symmetric 70 70 NW 270 180 Image
2019 12 2 06 13.0 125.6 80 115 symmetric 70 70 NW 270 180 Image
2019 12 2 09 13.0 125.2 85 120 symmetric 70 70 NW 270 180 Image
2019 12 2 12 12.9 124.7 85 120 symmetric 70 70 NW 270 180 Image
2019 12 2 15 13.1 124.1 90 130 symmetric 70 70 NW 270 180 Image
2019 12 2 18 13.2 123.5 90 130 symmetric 60 60 NW 240 150 Image
2019 12 2 21 13.1 122.7 90 130 symmetric 60 60 NW 240 150 Image
2019 12 3 00 13.2 122.2 80 115 symmetric 60 60 NW 240 150 Image
2019 12 3 03 13.3 121.7 80 115 symmetric 60 60 NW 240 150 Image
2019 12 3 06 13.3 120.8 70 100 symmetric 60 60 NW 240 150 Image
2019 12 3 09 13.2 120.3 70 100 symmetric 60 60 NW 240 150 Image
2019 12 3 12 13.4 119.6 65 95 symmetric 50 50 NW 240 150 Image
2019 12 3 15 13.6 119.1 65 95 symmetric 50 50 NW 240 120 Image
2019 12 3 18 13.7 118.6 60 85 symmetric 40 40 NW 240 120 Image
2019 12 3 21 13.8 118.4 60 85 symmetric 40 40 NW 240 120 Image
2019 12 4 00 14.0 117.7 50 70 - - - NW 240 120 Image
2019 12 4 03 14.2 117.1 50 70 - - - NW 240 120 Image
2019 12 4 06 14.3 117.0 50 70 - - - NW 240 120 Image
2019 12 4 09 14.3 116.7 50 70 - - - NW 240 120 Image
2019 12 4 12 14.5 116.4 45 65 - - - NW 240 120 Image
2019 12 4 15 14.8 116.0 45 65 - - - NW 240 120 Image
2019 12 4 18 14.9 115.6 35 50 - - - NW 150 90 Image
2019 12 4 21 14.8 115.1 35 50 - - - NW 150 90 Image
2019 12 5 00 14.7 114.5 35 50 - - - NW 150 90 Image
2019 12 5 03 14.3 114.3 35 50 - - - NW 150 90 Image
2019 12 5 06 13.9 113.9 35 50 - - - NW 150 90 Image
2019 12 5 09 13.7 113.6 35 50 - - - NW 150 90 Image
2019 12 5 12 13.1 113.6 35 50 - - - NW 150 90 Image
2019 12 5 15 12.0 113.0 0 0 - - - - - - Image
Japan Meteorological Agency Best Track Data | Correction Date : 2019-12-05
< Typhoon 201927 2019 Season Typhoon 201929 >

Help